sensor_id;sensor_type;location;lat;lon;timestamp;P1;durP1;ratioP1;P2;durP2;ratioP2
315;SDS011;14128;48.686;9.738;2022-12-18T00:01:31;30.57;;;15.90;;
315;SDS011;14128;48.686;9.738;2022-12-18T00:03:59;30.20;;;19.17;;
315;SDS011;14128;48.686;9.738;2022-12-18T00:06:28;32.83;;;18.77;;
315;SDS011;14128;48.686;9.738;2022-12-18T00:08:55;24.43;;;16.23;;
315;SDS011;14128;48.686;9.738;2022-12-18T00:11:24;26.20;;;17.70;;
315;SDS011;14128;48.686;9.738;2022-12-18T00:13:53;23.77;;;16.30;;
315;SDS011;14128;48.686;9.738;2022-12-18T00:16:23;32.50;;;18.27;;
315;SDS011;14128;48.686;9.738;2022-12-18T00:18:51;34.60;;;15.90;;
315;SDS011;14128;48.686;9.738;2022-12-18T00:21:19;31.00;;;16.03;;
315;SDS011;14128;48.686;9.738;2022-12-18T00:23:46;25.98;;;15.95;;
315;SDS011;14128;48.686;9.738;2022-12-18T00:26:17;29.35;;;17.05;;
315;SDS011;14128;48.686;9.738;2022-12-18T00:28:45;32.50;;;17.13;;
315;SDS011;14128;48.686;9.738;2022-12-18T00:31:13;26.70;;;16.73;;
315;SDS011;14128;48.686;9.738;2022-12-18T00:33:44;31.53;;;19.27;;
315;SDS011;14128;48.686;9.738;2022-12-18T00:36:12;31.87;;;16.20;;
315;SDS011;14128;48.686;9.738;2022-12-18T00:38:40;30.93;;;14.23;;
315;SDS011;14128;48.686;9.738;2022-12-18T00:41:08;24.97;;;15.43;;
315;SDS011;14128;48.686;9.738;2022-12-18T00:43:36;33.95;;;16.15;;
315;SDS011;14128;48.686;9.738;2022-12-18T00:46:03;28.37;;;15.93;;
315;SDS011;14128;48.686;9.738;2022-12-18T00:48:30;30.95;;;17.63;;
315;SDS011;14128;48.686;9.738;2022-12-18T00:50:58;25.20;;;16.33;;
315;SDS011;14128;48.686;9.738;2022-12-18T00:53:25;24.67;;;15.40;;
315;SDS011;14128;48.686;9.738;2022-12-18T00:55:52;29.05;;;17.48;;
315;SDS011;14128;48.686;9.738;2022-12-18T00:58:19;28.70;;;16.63;;
315;SDS011;14128;48.686;9.738;2022-12-18T01:00:45;32.23;;;16.37;;
315;SDS011;14128;48.686;9.738;2022-12-18T01:03:13;28.63;;;17.25;;
315;SDS011;14128;48.686;9.738;2022-12-18T01:05:40;30.42;;;16.10;;
315;SDS011;14128;48.686;9.738;2022-12-18T01:08:09;30.52;;;17.33;;
315;SDS011;14128;48.686;9.738;2022-12-18T01:10:35;29.83;;;16.40;;
315;SDS011;14128;48.686;9.738;2022-12-18T01:13:02;33.33;;;19.27;;
315;SDS011;14128;48.686;9.738;2022-12-18T01:15:29;30.80;;;15.47;;
315;SDS011;14128;48.686;9.738;2022-12-18T01:17:56;25.20;;;16.13;;
315;SDS011;14128;48.686;9.738;2022-12-18T01:20:23;30.42;;;18.33;;
315;SDS011;14128;48.686;9.738;2022-12-18T01:22:49;39.47;;;17.20;;
315;SDS011;14128;48.686;9.738;2022-12-18T01:25:17;34.67;;;15.63;;
315;SDS011;14128;48.686;9.738;2022-12-18T01:27:44;32.72;;;18.08;;
315;SDS011;14128;48.686;9.738;2022-12-18T01:30:11;33.30;;;16.80;;
315;SDS011;14128;48.686;9.738;2022-12-18T01:32:38;32.87;;;18.03;;
315;SDS011;14128;48.686;9.738;2022-12-18T01:35:05;31.67;;;18.55;;
315;SDS011;14128;48.686;9.738;2022-12-18T01:37:33;29.07;;;15.47;;
315;SDS011;14128;48.686;9.738;2022-12-18T01:40:00;24.63;;;15.10;;
315;SDS011;14128;48.686;9.738;2022-12-18T01:42:28;33.72;;;16.10;;
315;SDS011;14128;48.686;9.738;2022-12-18T01:44:56;35.55;;;17.08;;
315;SDS011;14128;48.686;9.738;2022-12-18T01:47:35;30.30;;;18.33;;
315;SDS011;14128;48.686;9.738;2022-12-18T01:50:06;28.30;;;17.60;;
315;SDS011;14128;48.686;9.738;2022-12-18T01:52:35;33.58;;;18.30;;
315;SDS011;14128;48.686;9.738;2022-12-18T01:55:03;25.13;;;15.98;;
315;SDS011;14128;48.686;9.738;2022-12-18T01:57:33;29.40;;;17.10;;
315;SDS011;14128;48.686;9.738;2022-12-18T02:00:01;33.00;;;20.27;;
315;SDS011;14128;48.686;9.738;2022-12-18T02:02:31;32.60;;;18.30;;
315;SDS011;14128;48.686;9.738;2022-12-18T02:04:57;32.72;;;18.50;;
315;SDS011;14128;48.686;9.738;2022-12-18T02:07:26;31.75;;;18.20;;
315;SDS011;14128;48.686;9.738;2022-12-18T02:10:00;34.10;;;18.30;;
315;SDS011;14128;48.686;9.738;2022-12-18T02:12:34;25.40;;;15.60;;
315;SDS011;14128;48.686;9.738;2022-12-18T02:15:10;30.50;;;18.27;;
315;SDS011;14128;48.686;9.738;2022-12-18T02:17:42;32.00;;;17.88;;
315;SDS011;14128;48.686;9.738;2022-12-18T02:20:15;30.90;;;18.90;;
315;SDS011;14128;48.686;9.738;2022-12-18T02:22:48;36.63;;;19.00;;
315;SDS011;14128;48.686;9.738;2022-12-18T02:25:32;30.33;;;17.03;;
315;SDS011;14128;48.686;9.738;2022-12-18T02:28:13;37.27;;;19.30;;
315;SDS011;14128;48.686;9.738;2022-12-18T02:30:42;33.42;;;17.73;;
315;SDS011;14128;48.686;9.738;2022-12-18T02:33:10;35.50;;;17.07;;
315;SDS011;14128;48.686;9.738;2022-12-18T02:35:37;27.20;;;14.53;;
315;SDS011;14128;48.686;9.738;2022-12-18T02:38:07;37.80;;;20.20;;
315;SDS011;14128;48.686;9.738;2022-12-18T02:40:34;27.93;;;16.10;;
315;SDS011;14128;48.686;9.738;2022-12-18T02:43:06;31.53;;;19.70;;
315;SDS011;14128;48.686;9.738;2022-12-18T02:45:35;33.22;;;18.70;;
315;SDS011;14128;48.686;9.738;2022-12-18T02:48:12;29.63;;;17.80;;
315;SDS011;14128;48.686;9.738;2022-12-18T02:50:41;30.37;;;17.30;;
315;SDS011;14128;48.686;9.738;2022-12-18T02:53:17;35.90;;;16.47;;
315;SDS011;14128;48.686;9.738;2022-12-18T02:55:52;31.77;;;14.63;;
315;SDS011;14128;48.686;9.738;2022-12-18T02:58:30;33.80;;;16.53;;
315;SDS011;14128;48.686;9.738;2022-12-18T03:01:09;27.10;;;14.00;;
315;SDS011;14128;48.686;9.738;2022-12-18T03:03:40;33.20;;;20.37;;
315;SDS011;14128;48.686;9.738;2022-12-18T03:06:14;36.50;;;19.27;;
315;SDS011;14128;48.686;9.738;2022-12-18T03:08:47;33.90;;;19.20;;
315;SDS011;14128;48.686;9.738;2022-12-18T03:11:16;38.07;;;19.57;;
315;SDS011;14128;48.686;9.738;2022-12-18T03:14:04;33.70;;;19.70;;
315;SDS011;14128;48.686;9.738;2022-12-18T03:16:34;32.43;;;17.90;;
315;SDS011;14128;48.686;9.738;2022-12-18T03:19:03;30.60;;;18.47;;
315;SDS011;14128;48.686;9.738;2022-12-18T03:21:33;38.07;;;20.80;;
315;SDS011;14128;48.686;9.738;2022-12-18T03:24:05;45.47;;;19.50;;
315;SDS011;14128;48.686;9.738;2022-12-18T03:26:34;32.07;;;18.83;;
315;SDS011;14128;48.686;9.738;2022-12-18T03:29:05;39.27;;;20.67;;
315;SDS011;14128;48.686;9.738;2022-12-18T03:31:37;34.00;;;19.07;;
315;SDS011;14128;48.686;9.738;2022-12-18T03:34:05;33.20;;;18.83;;
315;SDS011;14128;48.686;9.738;2022-12-18T03:36:37;34.30;;;17.90;;
315;SDS011;14128;48.686;9.738;2022-12-18T03:39:04;37.27;;;22.10;;
315;SDS011;14128;48.686;9.738;2022-12-18T03:41:31;38.00;;;19.00;;
315;SDS011;14128;48.686;9.738;2022-12-18T03:44:02;34.17;;;17.57;;
315;SDS011;14128;48.686;9.738;2022-12-18T03:46:36;35.70;;;18.17;;
315;SDS011;14128;48.686;9.738;2022-12-18T03:49:13;36.17;;;18.10;;
315;SDS011;14128;48.686;9.738;2022-12-18T03:51:48;34.00;;;18.60;;
315;SDS011;14128;48.686;9.738;2022-12-18T03:54:19;42.83;;;20.90;;
315;SDS011;14128;48.686;9.738;2022-12-18T03:56:48;36.80;;;19.20;;
315;SDS011;14128;48.686;9.738;2022-12-18T03:59:19;41.33;;;20.33;;
315;SDS011;14128;48.686;9.738;2022-12-18T04:01:48;43.33;;;21.57;;
315;SDS011;14128;48.686;9.738;2022-12-18T04:04:18;40.43;;;19.90;;
315;SDS011;14128;48.686;9.738;2022-12-18T04:06:46;43.23;;;22.97;;
315;SDS011;14128;48.686;9.738;2022-12-18T04:09:14;36.90;;;21.47;;
315;SDS011;14128;48.686;9.738;2022-12-18T04:11:41;34.47;;;19.87;;
315;SDS011;14128;48.686;9.738;2022-12-18T04:14:09;27.70;;;15.53;;
315;SDS011;14128;48.686;9.738;2022-12-18T04:16:36;43.07;;;21.10;;
315;SDS011;14128;48.686;9.738;2022-12-18T04:19:04;39.67;;;20.57;;
315;SDS011;14128;48.686;9.738;2022-12-18T04:21:31;39.60;;;22.10;;
315;SDS011;14128;48.686;9.738;2022-12-18T04:23:58;34.60;;;18.70;;
315;SDS011;14128;48.686;9.738;2022-12-18T04:26:25;39.10;;;19.53;;
315;SDS011;14128;48.686;9.738;2022-12-18T04:28:51;46.03;;;22.73;;
315;SDS011;14128;48.686;9.738;2022-12-18T04:31:18;42.33;;;22.73;;
315;SDS011;14128;48.686;9.738;2022-12-18T04:33:45;50.37;;;22.57;;
315;SDS011;14128;48.686;9.738;2022-12-18T04:36:13;37.43;;;20.20;;
315;SDS011;14128;48.686;9.738;2022-12-18T04:38:40;48.30;;;25.93;;
315;SDS011;14128;48.686;9.738;2022-12-18T04:41:07;39.23;;;19.97;;
315;SDS011;14128;48.686;9.738;2022-12-18T04:43:34;34.47;;;22.13;;
315;SDS011;14128;48.686;9.738;2022-12-18T04:46:01;42.10;;;22.13;;
315;SDS011;14128;48.686;9.738;2022-12-18T04:48:29;50.60;;;24.70;;
315;SDS011;14128;48.686;9.738;2022-12-18T04:50:55;46.10;;;25.47;;
315;SDS011;14128;48.686;9.738;2022-12-18T04:53:24;50.30;;;24.87;;
315;SDS011;14128;48.686;9.738;2022-12-18T04:55:50;45.63;;;21.43;;
315;SDS011;14128;48.686;9.738;2022-12-18T04:58:27;45.20;;;24.33;;
315;SDS011;14128;48.686;9.738;2022-12-18T05:00:54;58.13;;;24.70;;
315;SDS011;14128;48.686;9.738;2022-12-18T05:03:21;48.43;;;23.13;;
315;SDS011;14128;48.686;9.738;2022-12-18T05:05:48;50.13;;;22.77;;
315;SDS011;14128;48.686;9.738;2022-12-18T05:08:15;43.93;;;21.87;;
315;SDS011;14128;48.686;9.738;2022-12-18T05:10:44;46.27;;;24.80;;
315;SDS011;14128;48.686;9.738;2022-12-18T05:13:10;44.00;;;23.03;;
315;SDS011;14128;48.686;9.738;2022-12-18T05:15:37;37.30;;;25.37;;
315;SDS011;14128;48.686;9.738;2022-12-18T05:18:04;49.83;;;22.63;;
315;SDS011;14128;48.686;9.738;2022-12-18T05:20:31;49.33;;;24.53;;
315;SDS011;14128;48.686;9.738;2022-12-18T05:22:58;47.43;;;22.57;;
315;SDS011;14128;48.686;9.738;2022-12-18T05:25:25;48.53;;;22.70;;
315;SDS011;14128;48.686;9.738;2022-12-18T05:27:53;45.10;;;20.37;;
315;SDS011;14128;48.686;9.738;2022-12-18T05:30:20;47.03;;;22.60;;
315;SDS011;14128;48.686;9.738;2022-12-18T05:32:47;40.43;;;19.63;;
315;SDS011;14128;48.686;9.738;2022-12-18T05:35:14;43.60;;;23.50;;
315;SDS011;14128;48.686;9.738;2022-12-18T05:37:41;46.43;;;22.00;;
315;SDS011;14128;48.686;9.738;2022-12-18T05:40:08;52.50;;;24.80;;
315;SDS011;14128;48.686;9.738;2022-12-18T05:42:35;50.70;;;24.67;;
315;SDS011;14128;48.686;9.738;2022-12-18T05:45:04;58.13;;;27.33;;
315;SDS011;14128;48.686;9.738;2022-12-18T05:47:32;45.27;;;23.40;;
315;SDS011;14128;48.686;9.738;2022-12-18T05:49:59;43.17;;;22.80;;
315;SDS011;14128;48.686;9.738;2022-12-18T05:52:25;49.83;;;23.50;;
315;SDS011;14128;48.686;9.738;2022-12-18T05:54:52;48.53;;;22.93;;
315;SDS011;14128;48.686;9.738;2022-12-18T05:57:19;52.77;;;24.80;;
315;SDS011;14128;48.686;9.738;2022-12-18T05:59:46;45.83;;;21.70;;
315;SDS011;14128;48.686;9.738;2022-12-18T06:02:14;51.13;;;24.23;;
315;SDS011;14128;48.686;9.738;2022-12-18T06:04:40;46.83;;;20.73;;
315;SDS011;14128;48.686;9.738;2022-12-18T06:07:07;43.83;;;23.80;;
315;SDS011;14128;48.686;9.738;2022-12-18T06:09:34;46.43;;;23.50;;
315;SDS011;14128;48.686;9.738;2022-12-18T06:12:01;39.83;;;22.27;;
315;SDS011;14128;48.686;9.738;2022-12-18T06:14:28;53.77;;;22.03;;
315;SDS011;14128;48.686;9.738;2022-12-18T06:16:54;46.67;;;22.80;;
315;SDS011;14128;48.686;9.738;2022-12-18T06:19:22;26.60;;;13.67;;
315;SDS011;14128;48.686;9.738;2022-12-18T06:21:49;43.33;;;23.40;;
315;SDS011;14128;48.686;9.738;2022-12-18T06:24:16;38.30;;;21.63;;
315;SDS011;14128;48.686;9.738;2022-12-18T06:26:43;51.97;;;20.47;;
315;SDS011;14128;48.686;9.738;2022-12-18T06:29:10;35.63;;;18.80;;
315;SDS011;14128;48.686;9.738;2022-12-18T06:31:36;37.23;;;19.40;;
315;SDS011;14128;48.686;9.738;2022-12-18T06:34:03;46.30;;;22.40;;
315;SDS011;14128;48.686;9.738;2022-12-18T06:36:32;40.17;;;19.80;;
315;SDS011;14128;48.686;9.738;2022-12-18T06:38:59;44.17;;;21.67;;
315;SDS011;14128;48.686;9.738;2022-12-18T06:41:26;49.57;;;23.03;;
315;SDS011;14128;48.686;9.738;2022-12-18T06:43:52;51.53;;;25.40;;
315;SDS011;14128;48.686;9.738;2022-12-18T06:46:19;51.87;;;25.63;;
315;SDS011;14128;48.686;9.738;2022-12-18T06:48:46;60.13;;;27.20;;
315;SDS011;14128;48.686;9.738;2022-12-18T06:51:15;55.57;;;25.80;;
315;SDS011;14128;48.686;9.738;2022-12-18T06:53:44;44.13;;;19.97;;
315;SDS011;14128;48.686;9.738;2022-12-18T06:56:11;49.03;;;23.80;;
315;SDS011;14128;48.686;9.738;2022-12-18T06:58:38;45.63;;;22.43;;
315;SDS011;14128;48.686;9.738;2022-12-18T07:01:06;56.40;;;25.47;;
315;SDS011;14128;48.686;9.738;2022-12-18T07:03:34;43.33;;;23.57;;
315;SDS011;14128;48.686;9.738;2022-12-18T07:06:01;50.43;;;20.30;;
315;SDS011;14128;48.686;9.738;2022-12-18T07:08:28;63.13;;;23.40;;
315;SDS011;14128;48.686;9.738;2022-12-18T07:10:57;48.53;;;25.93;;
315;SDS011;14128;48.686;9.738;2022-12-18T07:13:24;46.10;;;21.97;;
315;SDS011;14128;48.686;9.738;2022-12-18T07:15:51;62.23;;;28.00;;
315;SDS011;14128;48.686;9.738;2022-12-18T07:18:18;49.33;;;26.37;;
315;SDS011;14128;48.686;9.738;2022-12-18T07:20:45;45.83;;;23.50;;
315;SDS011;14128;48.686;9.738;2022-12-18T07:23:12;58.87;;;28.37;;
315;SDS011;14128;48.686;9.738;2022-12-18T07:25:38;53.77;;;23.77;;
315;SDS011;14128;48.686;9.738;2022-12-18T07:28:06;61.83;;;28.07;;
315;SDS011;14128;48.686;9.738;2022-12-18T07:30:33;52.70;;;25.67;;
315;SDS011;14128;48.686;9.738;2022-12-18T07:33:03;49.67;;;23.30;;
315;SDS011;14128;48.686;9.738;2022-12-18T07:35:29;45.53;;;24.60;;
315;SDS011;14128;48.686;9.738;2022-12-18T07:37:56;59.33;;;25.10;;
315;SDS011;14128;48.686;9.738;2022-12-18T07:40:23;51.80;;;25.67;;
315;SDS011;14128;48.686;9.738;2022-12-18T07:42:50;36.43;;;20.07;;
315;SDS011;14128;48.686;9.738;2022-12-18T07:45:18;56.10;;;24.70;;
315;SDS011;14128;48.686;9.738;2022-12-18T07:47:45;67.37;;;29.93;;
315;SDS011;14128;48.686;9.738;2022-12-18T07:50:11;60.87;;;25.80;;
315;SDS011;14128;48.686;9.738;2022-12-18T07:52:39;59.53;;;25.97;;
315;SDS011;14128;48.686;9.738;2022-12-18T07:55:06;46.77;;;21.50;;
315;SDS011;14128;48.686;9.738;2022-12-18T07:57:33;56.27;;;22.77;;
315;SDS011;14128;48.686;9.738;2022-12-18T08:00:00;51.97;;;21.27;;
315;SDS011;14128;48.686;9.738;2022-12-18T08:02:28;55.77;;;25.10;;
315;SDS011;14128;48.686;9.738;2022-12-18T08:04:56;57.97;;;23.83;;
315;SDS011;14128;48.686;9.738;2022-12-18T08:07:24;56.83;;;27.40;;
315;SDS011;14128;48.686;9.738;2022-12-18T08:09:50;64.17;;;27.43;;
315;SDS011;14128;48.686;9.738;2022-12-18T08:12:17;59.10;;;26.70;;
315;SDS011;14128;48.686;9.738;2022-12-18T08:14:44;49.07;;;24.77;;
315;SDS011;14128;48.686;9.738;2022-12-18T08:17:11;56.93;;;25.67;;
315;SDS011;14128;48.686;9.738;2022-12-18T08:19:39;59.30;;;28.27;;
315;SDS011;14128;48.686;9.738;2022-12-18T08:22:06;47.80;;;24.10;;
315;SDS011;14128;48.686;9.738;2022-12-18T08:24:32;58.37;;;26.77;;
315;SDS011;14128;48.686;9.738;2022-12-18T08:26:59;61.30;;;29.03;;
315;SDS011;14128;48.686;9.738;2022-12-18T08:29:26;67.77;;;26.30;;
315;SDS011;14128;48.686;9.738;2022-12-18T08:31:53;62.30;;;30.47;;
315;SDS011;14128;48.686;9.738;2022-12-18T08:34:20;56.70;;;27.10;;
315;SDS011;14128;48.686;9.738;2022-12-18T08:36:48;55.70;;;27.40;;
315;SDS011;14128;48.686;9.738;2022-12-18T08:39:15;60.93;;;25.73;;
315;SDS011;14128;48.686;9.738;2022-12-18T08:41:41;59.17;;;28.70;;
315;SDS011;14128;48.686;9.738;2022-12-18T08:44:28;61.73;;;28.67;;
315;SDS011;14128;48.686;9.738;2022-12-18T08:47:03;56.57;;;25.43;;
315;SDS011;14128;48.686;9.738;2022-12-18T08:49:30;66.97;;;27.50;;
315;SDS011;14128;48.686;9.738;2022-12-18T08:51:58;59.73;;;27.13;;
315;SDS011;14128;48.686;9.738;2022-12-18T08:54:25;60.97;;;25.80;;
315;SDS011;14128;48.686;9.738;2022-12-18T08:56:52;50.03;;;24.33;;
315;SDS011;14128;48.686;9.738;2022-12-18T08:59:19;66.93;;;26.23;;
315;SDS011;14128;48.686;9.738;2022-12-18T09:01:46;60.83;;;29.00;;
315;SDS011;14128;48.686;9.738;2022-12-18T09:04:13;59.20;;;29.67;;
315;SDS011;14128;48.686;9.738;2022-12-18T09:06:40;58.33;;;28.00;;
315;SDS011;14128;48.686;9.738;2022-12-18T09:09:09;69.33;;;29.43;;
315;SDS011;14128;48.686;9.738;2022-12-18T09:11:36;57.63;;;25.07;;
315;SDS011;14128;48.686;9.738;2022-12-18T09:14:03;59.70;;;26.93;;
315;SDS011;14128;48.686;9.738;2022-12-18T09:16:30;63.10;;;28.97;;
315;SDS011;14128;48.686;9.738;2022-12-18T09:18:59;68.23;;;30.70;;
315;SDS011;14128;48.686;9.738;2022-12-18T09:21:28;59.17;;;28.20;;
315;SDS011;14128;48.686;9.738;2022-12-18T09:23:56;59.70;;;28.50;;
315;SDS011;14128;48.686;9.738;2022-12-18T09:26:25;63.70;;;29.20;;
315;SDS011;14128;48.686;9.738;2022-12-18T09:28:52;59.13;;;26.90;;
315;SDS011;14128;48.686;9.738;2022-12-18T09:31:20;51.63;;;26.40;;
315;SDS011;14128;48.686;9.738;2022-12-18T09:33:48;53.80;;;25.57;;
315;SDS011;14128;48.686;9.738;2022-12-18T09:36:15;51.70;;;23.03;;
315;SDS011;14128;48.686;9.738;2022-12-18T09:38:43;59.77;;;25.43;;
315;SDS011;14128;48.686;9.738;2022-12-18T09:41:15;54.00;;;26.60;;
315;SDS011;14128;48.686;9.738;2022-12-18T09:44:02;64.13;;;26.80;;
315;SDS011;14128;48.686;9.738;2022-12-18T09:46:37;64.50;;;28.40;;
315;SDS011;14128;48.686;9.738;2022-12-18T09:49:07;49.23;;;26.03;;
315;SDS011;14128;48.686;9.738;2022-12-18T09:51:41;51.70;;;26.10;;
315;SDS011;14128;48.686;9.738;2022-12-18T09:54:11;52.43;;;25.37;;
315;SDS011;14128;48.686;9.738;2022-12-18T09:56:44;46.20;;;21.80;;
315;SDS011;14128;48.686;9.738;2022-12-18T09:59:15;60.77;;;26.30;;
315;SDS011;14128;48.686;9.738;2022-12-18T10:01:47;41.70;;;21.93;;
315;SDS011;14128;48.686;9.738;2022-12-18T10:04:14;52.37;;;24.77;;
315;SDS011;14128;48.686;9.738;2022-12-18T10:06:43;51.00;;;25.00;;
315;SDS011;14128;48.686;9.738;2022-12-18T10:09:18;40.20;;;23.70;;
315;SDS011;14128;48.686;9.738;2022-12-18T10:11:53;56.77;;;24.37;;
315;SDS011;14128;48.686;9.738;2022-12-18T10:14:31;46.27;;;25.87;;
315;SDS011;14128;48.686;9.738;2022-12-18T10:17:07;45.83;;;24.17;;
315;SDS011;14128;48.686;9.738;2022-12-18T10:19:43;41.00;;;22.53;;
315;SDS011;14128;48.686;9.738;2022-12-18T10:22:18;50.77;;;24.37;;
315;SDS011;14128;48.686;9.738;2022-12-18T10:25:03;44.37;;;25.07;;
315;SDS011;14128;48.686;9.738;2022-12-18T10:27:40;58.63;;;26.63;;
315;SDS011;14128;48.686;9.738;2022-12-18T10:30:13;42.23;;;23.90;;
315;SDS011;14128;48.686;9.738;2022-12-18T10:32:41;53.40;;;22.70;;
315;SDS011;14128;48.686;9.738;2022-12-18T10:35:11;51.73;;;24.13;;
315;SDS011;14128;48.686;9.738;2022-12-18T10:37:59;47.10;;;24.63;;
315;SDS011;14128;48.686;9.738;2022-12-18T10:40:30;44.90;;;23.37;;
315;SDS011;14128;48.686;9.738;2022-12-18T10:43:02;38.23;;;20.90;;
315;SDS011;14128;48.686;9.738;2022-12-18T10:45:31;46.30;;;22.00;;
315;SDS011;14128;48.686;9.738;2022-12-18T10:47:58;42.33;;;22.53;;
315;SDS011;14128;48.686;9.738;2022-12-18T10:50:26;50.93;;;23.93;;
315;SDS011;14128;48.686;9.738;2022-12-18T10:52:57;49.47;;;23.13;;
315;SDS011;14128;48.686;9.738;2022-12-18T10:55:25;44.80;;;23.00;;
315;SDS011;14128;48.686;9.738;2022-12-18T10:58:02;34.60;;;20.73;;
315;SDS011;14128;48.686;9.738;2022-12-18T11:00:43;47.03;;;22.50;;
315;SDS011;14128;48.686;9.738;2022-12-18T11:06:03;54.40;;;24.40;;
315;SDS011;14128;48.686;9.738;2022-12-18T11:08:32;44.73;;;22.97;;
315;SDS011;14128;48.686;9.738;2022-12-18T11:10:59;37.40;;;21.17;;
315;SDS011;14128;48.686;9.738;2022-12-18T11:13:27;41.63;;;21.63;;
315;SDS011;14128;48.686;9.738;2022-12-18T11:15:57;37.53;;;20.70;;
315;SDS011;14128;48.686;9.738;2022-12-18T11:18:26;40.83;;;21.60;;
315;SDS011;14128;48.686;9.738;2022-12-18T11:20:55;41.17;;;19.10;;
315;SDS011;14128;48.686;9.738;2022-12-18T11:23:23;38.43;;;21.40;;
315;SDS011;14128;48.686;9.738;2022-12-18T11:25:52;39.50;;;20.10;;
315;SDS011;14128;48.686;9.738;2022-12-18T11:28:25;40.80;;;21.10;;
315;SDS011;14128;48.686;9.738;2022-12-18T11:33:47;44.67;;;22.93;;
315;SDS011;14128;48.686;9.738;2022-12-18T11:36:22;38.43;;;20.30;;
315;SDS011;14128;48.686;9.738;2022-12-18T11:38:50;42.23;;;19.90;;
315;SDS011;14128;48.686;9.738;2022-12-18T11:41:21;41.30;;;22.63;;
315;SDS011;14128;48.686;9.738;2022-12-18T11:44:14;44.10;;;22.00;;
315;SDS011;14128;48.686;9.738;2022-12-18T11:46:49;46.13;;;20.57;;
315;SDS011;14128;48.686;9.738;2022-12-18T11:49:20;43.47;;;20.70;;
315;SDS011;14128;48.686;9.738;2022-12-18T11:51:51;43.67;;;23.80;;
315;SDS011;14128;48.686;9.738;2022-12-18T11:54:24;40.40;;;22.53;;
315;SDS011;14128;48.686;9.738;2022-12-18T11:56:53;42.67;;;22.57;;
315;SDS011;14128;48.686;9.738;2022-12-18T11:59:26;37.73;;;20.40;;
315;SDS011;14128;48.686;9.738;2022-12-18T12:02:01;40.50;;;22.87;;
315;SDS011;14128;48.686;9.738;2022-12-18T12:04:59;35.77;;;22.93;;
315;SDS011;14128;48.686;9.738;2022-12-18T12:07:38;41.70;;;23.60;;
315;SDS011;14128;48.686;9.738;2022-12-18T12:10:18;43.53;;;23.60;;
315;SDS011;14128;48.686;9.738;2022-12-18T12:13:05;46.17;;;23.60;;
315;SDS011;14128;48.686;9.738;2022-12-18T12:15:43;46.90;;;23.23;;
315;SDS011;14128;48.686;9.738;2022-12-18T12:18:24;44.43;;;24.63;;
315;SDS011;14128;48.686;9.738;2022-12-18T12:21:02;33.07;;;21.10;;
315;SDS011;14128;48.686;9.738;2022-12-18T12:23:38;42.80;;;21.70;;
315;SDS011;14128;48.686;9.738;2022-12-18T12:26:10;41.97;;;24.37;;
315;SDS011;14128;48.686;9.738;2022-12-18T12:28:45;40.00;;;22.33;;
315;SDS011;14128;48.686;9.738;2022-12-18T12:31:38;42.97;;;22.17;;
315;SDS011;14128;48.686;9.738;2022-12-18T12:34:16;47.90;;;23.20;;
315;SDS011;14128;48.686;9.738;2022-12-18T12:36:50;41.80;;;20.93;;
315;SDS011;14128;48.686;9.738;2022-12-18T12:39:28;40.20;;;21.37;;
315;SDS011;14128;48.686;9.738;2022-12-18T12:41:59;45.40;;;22.90;;
315;SDS011;14128;48.686;9.738;2022-12-18T12:44:47;38.23;;;21.70;;
315;SDS011;14128;48.686;9.738;2022-12-18T12:47:19;34.57;;;22.33;;
315;SDS011;14128;48.686;9.738;2022-12-18T12:49:52;36.13;;;21.30;;
315;SDS011;14128;48.686;9.738;2022-12-18T12:52:23;39.87;;;20.80;;
315;SDS011;14128;48.686;9.738;2022-12-18T12:54:56;44.43;;;25.17;;
315;SDS011;14128;48.686;9.738;2022-12-18T12:57:27;40.70;;;22.47;;
315;SDS011;14128;48.686;9.738;2022-12-18T13:00:00;43.23;;;21.87;;
315;SDS011;14128;48.686;9.738;2022-12-18T13:02:33;40.60;;;22.30;;
315;SDS011;14128;48.686;9.738;2022-12-18T13:05:09;48.33;;;22.77;;
315;SDS011;14128;48.686;9.738;2022-12-18T13:07:46;42.80;;;22.37;;
315;SDS011;14128;48.686;9.738;2022-12-18T13:10:23;43.77;;;22.63;;
315;SDS011;14128;48.686;9.738;2022-12-18T13:13:08;39.50;;;23.17;;
315;SDS011;14128;48.686;9.738;2022-12-18T13:15:37;40.97;;;24.07;;
315;SDS011;14128;48.686;9.738;2022-12-18T13:21:12;43.40;;;25.30;;
315;SDS011;14128;48.686;9.738;2022-12-18T13:23:44;34.83;;;20.50;;
315;SDS011;14128;48.686;9.738;2022-12-18T13:26:30;39.77;;;22.40;;
315;SDS011;14128;48.686;9.738;2022-12-18T13:28:59;40.70;;;22.07;;
315;SDS011;14128;48.686;9.738;2022-12-18T13:34:32;40.37;;;22.77;;
315;SDS011;14128;48.686;9.738;2022-12-18T13:40:11;39.97;;;22.47;;
315;SDS011;14128;48.686;9.738;2022-12-18T13:43:25;46.93;;;22.90;;
315;SDS011;14128;48.686;9.738;2022-12-18T13:46:01;41.27;;;21.90;;
315;SDS011;14128;48.686;9.738;2022-12-18T13:48:31;38.27;;;19.37;;
315;SDS011;14128;48.686;9.738;2022-12-18T13:51:00;43.67;;;24.67;;
315;SDS011;14128;48.686;9.738;2022-12-18T13:53:31;36.90;;;22.43;;
315;SDS011;14128;48.686;9.738;2022-12-18T13:56:03;41.73;;;22.10;;
315;SDS011;14128;48.686;9.738;2022-12-18T13:58:31;41.10;;;20.77;;
315;SDS011;14128;48.686;9.738;2022-12-18T14:00:58;38.97;;;22.03;;
315;SDS011;14128;48.686;9.738;2022-12-18T14:03:28;34.97;;;20.73;;
315;SDS011;14128;48.686;9.738;2022-12-18T14:05:56;45.43;;;23.70;;
315;SDS011;14128;48.686;9.738;2022-12-18T14:08:27;26.63;;;18.07;;
315;SDS011;14128;48.686;9.738;2022-12-18T14:11:00;37.30;;;20.60;;
315;SDS011;14128;48.686;9.738;2022-12-18T14:13:30;38.37;;;21.50;;
315;SDS011;14128;48.686;9.738;2022-12-18T14:16:00;39.50;;;20.50;;
315;SDS011;14128;48.686;9.738;2022-12-18T14:18:29;38.90;;;20.27;;
315;SDS011;14128;48.686;9.738;2022-12-18T14:21:14;41.13;;;22.30;;
315;SDS011;14128;48.686;9.738;2022-12-18T14:23:44;37.13;;;21.50;;
315;SDS011;14128;48.686;9.738;2022-12-18T14:26:23;33.90;;;20.20;;
315;SDS011;14128;48.686;9.738;2022-12-18T14:28:53;32.07;;;19.70;;
315;SDS011;14128;48.686;9.738;2022-12-18T14:31:21;38.10;;;21.23;;
315;SDS011;14128;48.686;9.738;2022-12-18T14:33:49;37.60;;;21.10;;
315;SDS011;14128;48.686;9.738;2022-12-18T14:36:17;39.60;;;22.37;;
315;SDS011;14128;48.686;9.738;2022-12-18T14:38:47;36.70;;;20.63;;
315;SDS011;14128;48.686;9.738;2022-12-18T14:41:16;38.90;;;24.33;;
315;SDS011;14128;48.686;9.738;2022-12-18T14:43:46;36.67;;;19.20;;
315;SDS011;14128;48.686;9.738;2022-12-18T14:49:04;37.73;;;20.17;;
315;SDS011;14128;48.686;9.738;2022-12-18T14:51:46;32.90;;;19.73;;
315;SDS011;14128;48.686;9.738;2022-12-18T14:54:14;43.10;;;20.70;;
315;SDS011;14128;48.686;9.738;2022-12-18T14:56:44;43.03;;;22.23;;
315;SDS011;14128;48.686;9.738;2022-12-18T14:59:14;35.53;;;19.13;;
315;SDS011;14128;48.686;9.738;2022-12-18T15:01:44;37.27;;;21.70;;
315;SDS011;14128;48.686;9.738;2022-12-18T15:04:23;33.17;;;20.63;;
315;SDS011;14128;48.686;9.738;2022-12-18T15:07:02;36.33;;;22.20;;
315;SDS011;14128;48.686;9.738;2022-12-18T15:09:39;44.40;;;24.50;;
315;SDS011;14128;48.686;9.738;2022-12-18T15:12:15;41.73;;;22.17;;
315;SDS011;14128;48.686;9.738;2022-12-18T15:14:52;30.50;;;17.93;;
315;SDS011;14128;48.686;9.738;2022-12-18T15:17:19;40.87;;;18.83;;
315;SDS011;14128;48.686;9.738;2022-12-18T15:19:47;35.57;;;18.73;;
315;SDS011;14128;48.686;9.738;2022-12-18T15:22:18;37.87;;;19.73;;
315;SDS011;14128;48.686;9.738;2022-12-18T15:24:47;30.13;;;17.43;;